map of KIXA home
KIXA - Airport
Location
City:  Roanoke Rapids, North Carolina, United States
Name:Halifax-Northampton Regional
ICAO:KIXA
FAA LID:IXA

Details
Type:Airport (Airfield)
Use:Public/Civil
Latitude:3619'47"N (36.329806)
Longitude:7738'07"W (-77.635221)
Datum:WGS 1984
Elevation:144 ft (44 m)
Variation:10.00W (WMM2015 magnetic declination)
-0.03 annual change
Runways:1
Longest:5500 × 101 ft (1676 × 31 m), paved

Time
Time Zone:UTC-5 (DST-4)
Local Time:

Weather
METAR:KIXA 191100Z AUTO 00000KT 10SM SCT070 SCT085 SCT120 05/05 A3017 RMK AO2

Related Locations
Nearby:
Farthest:YAUG: 11708 mi / 18842 km
Augusta [Augusta Airport], WA, AU

Find:

   beyond  
but within

Other Information
Maps:
NOTAMs:
Links:
Sources:

  
  • flag of United States
  • flag of North Carolina
  

Sectional Chart

Flight Planning
at skyvector.com

Satellite Image

Google Maps Satellite view

 

Copyright © 2004-2018 Karl L. Swartz. All rights reserved.
The Great Circle Mapper name and logo are trademarks of the Great Circle Mapper.
All other trademarks mentioned herein belong to their respective owners.
Please see credits for attibutions and further copyright information.

  Follow gcmap on Facebook Follow gcmap on Twitter Follow gcmap on Google+ GCmap on LinkedIn

hCard Microformat

Geo Microformat